sensor_id;sensor_type;location;lat;lon;timestamp;P1;durP1;ratioP1;P2;durP2;ratioP2
21987;SDS011;11158;53.404;-1.510;2023-03-12T00:00:43;9.23;;;8.02;;
21987;SDS011;11158;53.404;-1.510;2023-03-12T00:03:09;7.82;;;6.85;;
21987;SDS011;11158;53.404;-1.510;2023-03-12T00:05:36;6.80;;;6.10;;
21987;SDS011;11158;53.404;-1.510;2023-03-12T00:08:03;6.88;;;6.20;;
21987;SDS011;11158;53.404;-1.510;2023-03-12T00:10:29;7.32;;;6.30;;
21987;SDS011;11158;53.404;-1.510;2023-03-12T00:12:55;7.63;;;6.20;;
21987;SDS011;11158;53.404;-1.510;2023-03-12T00:15:21;6.97;;;6.28;;
21987;SDS011;11158;53.404;-1.510;2023-03-12T00:17:48;6.70;;;5.70;;
21987;SDS011;11158;53.404;-1.510;2023-03-12T00:20:14;7.00;;;5.60;;
21987;SDS011;11158;53.404;-1.510;2023-03-12T00:22:40;6.07;;;5.35;;
21987;SDS011;11158;53.404;-1.510;2023-03-12T00:25:09;6.70;;;5.20;;
21987;SDS011;11158;53.404;-1.510;2023-03-12T00:27:51;4.00;;;3.60;;
21987;SDS011;11158;53.404;-1.510;2023-03-12T00:30:16;4.78;;;4.28;;
21987;SDS011;11158;53.404;-1.510;2023-03-12T00:32:42;5.15;;;4.47;;
21987;SDS011;11158;53.404;-1.510;2023-03-12T00:35:08;5.13;;;4.45;;
21987;SDS011;11158;53.404;-1.510;2023-03-12T00:37:35;5.30;;;4.32;;
21987;SDS011;11158;53.404;-1.510;2023-03-12T00:40:01;5.13;;;3.85;;
21987;SDS011;11158;53.404;-1.510;2023-03-12T00:42:30;4.63;;;3.58;;
21987;SDS011;11158;53.404;-1.510;2023-03-12T00:44:57;4.30;;;3.88;;
21987;SDS011;11158;53.404;-1.510;2023-03-12T00:47:23;4.70;;;4.30;;
21987;SDS011;11158;53.404;-1.510;2023-03-12T00:49:48;4.30;;;3.90;;
21987;SDS011;11158;53.404;-1.510;2023-03-12T00:52:14;4.82;;;4.03;;
21987;SDS011;11158;53.404;-1.510;2023-03-12T00:54:40;3.67;;;3.30;;
21987;SDS011;11158;53.404;-1.510;2023-03-12T00:57:06;3.80;;;3.40;;
21987;SDS011;11158;53.404;-1.510;2023-03-12T00:59:31;3.38;;;3.08;;
21987;SDS011;11158;53.404;-1.510;2023-03-12T01:01:57;2.70;;;2.50;;
21987;SDS011;11158;53.404;-1.510;2023-03-12T01:04:23;2.55;;;2.35;;
21987;SDS011;11158;53.404;-1.510;2023-03-12T01:06:49;2.70;;;2.50;;
21987;SDS011;11158;53.404;-1.510;2023-03-12T01:09:14;2.50;;;2.30;;
21987;SDS011;11158;53.404;-1.510;2023-03-12T01:11:40;2.60;;;2.40;;
21987;SDS011;11158;53.404;-1.510;2023-03-12T01:14:06;3.03;;;2.78;;
21987;SDS011;11158;53.404;-1.510;2023-03-12T01:16:33;2.75;;;2.40;;
21987;SDS011;11158;53.404;-1.510;2023-03-12T01:18:59;2.20;;;2.00;;
21987;SDS011;11158;53.404;-1.510;2023-03-12T01:21:26;2.50;;;2.30;;
21987;SDS011;11158;53.404;-1.510;2023-03-12T01:23:53;2.55;;;2.35;;
21987;SDS011;11158;53.404;-1.510;2023-03-12T01:26:19;2.40;;;2.20;;
21987;SDS011;11158;53.404;-1.510;2023-03-12T01:28:45;2.50;;;2.30;;
21987;SDS011;11158;53.404;-1.510;2023-03-12T01:31:12;4.13;;;2.65;;
21987;SDS011;11158;53.404;-1.510;2023-03-12T01:33:39;2.70;;;2.50;;
21987;SDS011;11158;53.404;-1.510;2023-03-12T01:36:11;2.70;;;2.50;;
21987;SDS011;11158;53.404;-1.510;2023-03-12T01:38:42;2.95;;;2.60;;
21987;SDS011;11158;53.404;-1.510;2023-03-12T01:41:07;2.75;;;2.55;;
21987;SDS011;11158;53.404;-1.510;2023-03-12T01:43:34;2.42;;;2.22;;
21987;SDS011;11158;53.404;-1.510;2023-03-12T01:46:05;2.85;;;2.63;;
21987;SDS011;11158;53.404;-1.510;2023-03-12T01:48:33;2.90;;;2.60;;
21987;SDS011;11158;53.404;-1.510;2023-03-12T01:51:09;2.83;;;2.63;;
21987;SDS011;11158;53.404;-1.510;2023-03-12T01:53:38;2.55;;;2.35;;
21987;SDS011;11158;53.404;-1.510;2023-03-12T01:56:05;3.40;;;3.10;;
21987;SDS011;11158;53.404;-1.510;2023-03-12T01:58:33;2.90;;;2.70;;
21987;SDS011;11158;53.404;-1.510;2023-03-12T02:01:02;3.33;;;2.88;;
21987;SDS011;11158;53.404;-1.510;2023-03-12T02:03:28;3.58;;;3.28;;
21987;SDS011;11158;53.404;-1.510;2023-03-12T02:05:58;3.60;;;3.30;;
21987;SDS011;11158;53.404;-1.510;2023-03-12T02:08:26;3.60;;;3.30;;
21987;SDS011;11158;53.404;-1.510;2023-03-12T02:10:52;3.47;;;3.17;;
21987;SDS011;11158;53.404;-1.510;2023-03-12T02:13:18;2.92;;;2.53;;
21987;SDS011;11158;53.404;-1.510;2023-03-12T02:15:44;3.13;;;2.35;;
21987;SDS011;11158;53.404;-1.510;2023-03-12T02:18:17;2.85;;;2.60;;
21987;SDS011;11158;53.404;-1.510;2023-03-12T02:20:51;4.75;;;3.20;;
21987;SDS011;11158;53.404;-1.510;2023-03-12T02:23:36;3.25;;;2.80;;
21987;SDS011;11158;53.404;-1.510;2023-03-12T02:26:07;5.60;;;3.30;;
21987;SDS011;11158;53.404;-1.510;2023-03-12T02:28:35;3.97;;;3.08;;
21987;SDS011;11158;53.404;-1.510;2023-03-12T02:31:06;4.93;;;3.28;;
21987;SDS011;11158;53.404;-1.510;2023-03-12T02:33:33;4.95;;;3.58;;
21987;SDS011;11158;53.404;-1.510;2023-03-12T02:35:59;5.18;;;4.60;;
21987;SDS011;11158;53.404;-1.510;2023-03-12T02:40:57;5.43;;;4.40;;
21987;SDS011;11158;53.404;-1.510;2023-03-12T02:43:27;5.53;;;4.85;;
21987;SDS011;11158;53.404;-1.510;2023-03-12T02:45:53;6.32;;;5.20;;
21987;SDS011;11158;53.404;-1.510;2023-03-12T02:48:20;5.00;;;4.45;;
21987;SDS011;11158;53.404;-1.510;2023-03-12T02:50:45;4.72;;;4.22;;
21987;SDS011;11158;53.404;-1.510;2023-03-12T02:53:11;7.20;;;5.00;;
21987;SDS011;11158;53.404;-1.510;2023-03-12T02:55:37;6.93;;;5.57;;
21987;SDS011;11158;53.404;-1.510;2023-03-12T02:58:02;5.28;;;4.78;;
21987;SDS011;11158;53.404;-1.510;2023-03-12T03:00:28;5.80;;;4.78;;
21987;SDS011;11158;53.404;-1.510;2023-03-12T03:02:59;7.70;;;5.10;;
21987;SDS011;11158;53.404;-1.510;2023-03-12T03:05:26;6.28;;;4.60;;
21987;SDS011;11158;53.404;-1.510;2023-03-12T03:07:52;4.88;;;3.88;;
21987;SDS011;11158;53.404;-1.510;2023-03-12T03:10:17;8.30;;;4.40;;
21987;SDS011;11158;53.404;-1.510;2023-03-12T03:12:44;7.32;;;4.10;;
21987;SDS011;11158;53.404;-1.510;2023-03-12T03:15:11;7.65;;;3.55;;
21987;SDS011;11158;53.404;-1.510;2023-03-12T03:17:37;7.55;;;3.67;;
21987;SDS011;11158;53.404;-1.510;2023-03-12T03:20:03;8.90;;;3.58;;
21987;SDS011;11158;53.404;-1.510;2023-03-12T03:22:33;7.70;;;3.45;;
21987;SDS011;11158;53.404;-1.510;2023-03-12T03:24:58;11.27;;;4.15;;
21987;SDS011;11158;53.404;-1.510;2023-03-12T03:27:24;7.45;;;3.53;;
21987;SDS011;11158;53.404;-1.510;2023-03-12T03:29:49;8.02;;;3.80;;
21987;SDS011;11158;53.404;-1.510;2023-03-12T03:32:15;7.95;;;3.03;;
21987;SDS011;11158;53.404;-1.510;2023-03-12T03:34:41;10.55;;;3.50;;
21987;SDS011;11158;53.404;-1.510;2023-03-12T03:37:06;6.25;;;2.95;;
21987;SDS011;11158;53.404;-1.510;2023-03-12T03:39:32;10.60;;;3.90;;
21987;SDS011;11158;53.404;-1.510;2023-03-12T03:41:58;7.72;;;4.00;;
21987;SDS011;11158;53.404;-1.510;2023-03-12T03:44:24;9.80;;;3.78;;
21987;SDS011;11158;53.404;-1.510;2023-03-12T03:46:50;7.63;;;4.13;;
21987;SDS011;11158;53.404;-1.510;2023-03-12T03:49:15;11.18;;;4.40;;
21987;SDS011;11158;53.404;-1.510;2023-03-12T03:51:41;9.38;;;4.38;;
21987;SDS011;11158;53.404;-1.510;2023-03-12T03:54:08;10.07;;;4.30;;
21987;SDS011;11158;53.404;-1.510;2023-03-12T03:56:34;12.23;;;4.43;;
21987;SDS011;11158;53.404;-1.510;2023-03-12T03:59:00;8.93;;;3.70;;
21987;SDS011;11158;53.404;-1.510;2023-03-12T04:01:26;8.18;;;3.95;;
21987;SDS011;11158;53.404;-1.510;2023-03-12T04:03:52;9.63;;;3.72;;
21987;SDS011;11158;53.404;-1.510;2023-03-12T04:06:18;9.02;;;3.50;;
21987;SDS011;11158;53.404;-1.510;2023-03-12T04:08:43;9.63;;;3.28;;
21987;SDS011;11158;53.404;-1.510;2023-03-12T04:11:11;14.70;;;3.92;;
21987;SDS011;11158;53.404;-1.510;2023-03-12T04:13:39;21.45;;;4.53;;
21987;SDS011;11158;53.404;-1.510;2023-03-12T04:16:05;18.88;;;4.80;;
21987;SDS011;11158;53.404;-1.510;2023-03-12T04:18:32;24.13;;;6.75;;
21987;SDS011;11158;53.404;-1.510;2023-03-12T04:20:58;23.60;;;6.18;;
21987;SDS011;11158;53.404;-1.510;2023-03-12T04:23:23;24.23;;;6.50;;
21987;SDS011;11158;53.404;-1.510;2023-03-12T04:25:49;25.50;;;5.95;;
21987;SDS011;11158;53.404;-1.510;2023-03-12T04:28:14;27.23;;;6.85;;
21987;SDS011;11158;53.404;-1.510;2023-03-12T04:30:40;22.55;;;6.45;;
21987;SDS011;11158;53.404;-1.510;2023-03-12T04:33:06;25.17;;;6.78;;
21987;SDS011;11158;53.404;-1.510;2023-03-12T04:35:32;21.20;;;6.72;;
21987;SDS011;11158;53.404;-1.510;2023-03-12T04:37:59;26.60;;;7.38;;
21987;SDS011;11158;53.404;-1.510;2023-03-12T04:40:26;23.42;;;6.78;;
21987;SDS011;11158;53.404;-1.510;2023-03-12T04:42:52;22.27;;;6.80;;
21987;SDS011;11158;53.404;-1.510;2023-03-12T04:45:17;25.20;;;6.63;;
21987;SDS011;11158;53.404;-1.510;2023-03-12T04:47:43;26.65;;;7.18;;
21987;SDS011;11158;53.404;-1.510;2023-03-12T04:50:09;17.23;;;6.53;;
21987;SDS011;11158;53.404;-1.510;2023-03-12T04:52:36;20.63;;;6.15;;
21987;SDS011;11158;53.404;-1.510;2023-03-12T04:55:02;16.17;;;5.90;;
21987;SDS011;11158;53.404;-1.510;2023-03-12T04:57:28;22.52;;;5.82;;
21987;SDS011;11158;53.404;-1.510;2023-03-12T04:59:54;14.90;;;5.50;;
21987;SDS011;11158;53.404;-1.510;2023-03-12T05:02:19;17.95;;;6.38;;
21987;SDS011;11158;53.404;-1.510;2023-03-12T05:04:45;13.57;;;5.53;;
21987;SDS011;11158;53.404;-1.510;2023-03-12T05:07:10;24.95;;;7.07;;
21987;SDS011;11158;53.404;-1.510;2023-03-12T05:09:36;17.38;;;6.43;;
21987;SDS011;11158;53.404;-1.510;2023-03-12T05:12:01;18.33;;;6.25;;
21987;SDS011;11158;53.404;-1.510;2023-03-12T05:14:27;18.45;;;6.35;;
21987;SDS011;11158;53.404;-1.510;2023-03-12T05:16:53;17.23;;;6.13;;
21987;SDS011;11158;53.404;-1.510;2023-03-12T05:19:18;19.17;;;6.00;;
21987;SDS011;11158;53.404;-1.510;2023-03-12T05:21:44;17.50;;;5.90;;
21987;SDS011;11158;53.404;-1.510;2023-03-12T05:24:11;16.42;;;4.90;;
21987;SDS011;11158;53.404;-1.510;2023-03-12T05:26:37;16.77;;;5.43;;
21987;SDS011;11158;53.404;-1.510;2023-03-12T05:29:03;14.25;;;4.82;;
21987;SDS011;11158;53.404;-1.510;2023-03-12T05:31:30;25.02;;;6.50;;
21987;SDS011;11158;53.404;-1.510;2023-03-12T05:33:59;13.48;;;5.28;;
21987;SDS011;11158;53.404;-1.510;2023-03-12T05:36:26;26.90;;;5.68;;
21987;SDS011;11158;53.404;-1.510;2023-03-12T05:38:52;27.23;;;5.80;;
21987;SDS011;11158;53.404;-1.510;2023-03-12T05:41:21;18.33;;;5.03;;
21987;SDS011;11158;53.404;-1.510;2023-03-12T05:43:52;15.00;;;5.80;;
21987;SDS011;11158;53.404;-1.510;2023-03-12T05:46:20;13.88;;;4.82;;
21987;SDS011;11158;53.404;-1.510;2023-03-12T05:48:46;19.55;;;5.13;;
21987;SDS011;11158;53.404;-1.510;2023-03-12T05:51:12;20.15;;;5.18;;
21987;SDS011;11158;53.404;-1.510;2023-03-12T05:53:37;17.35;;;5.88;;
21987;SDS011;11158;53.404;-1.510;2023-03-12T05:56:04;12.98;;;5.05;;
21987;SDS011;11158;53.404;-1.510;2023-03-12T05:58:32;20.35;;;6.10;;
21987;SDS011;11158;53.404;-1.510;2023-03-12T06:00:58;20.02;;;6.03;;
21987;SDS011;11158;53.404;-1.510;2023-03-12T06:03:24;24.73;;;6.38;;
21987;SDS011;11158;53.404;-1.510;2023-03-12T06:05:50;27.83;;;6.63;;
21987;SDS011;11158;53.404;-1.510;2023-03-12T06:08:20;23.38;;;6.18;;
21987;SDS011;11158;53.404;-1.510;2023-03-12T06:10:48;24.83;;;5.78;;
21987;SDS011;11158;53.404;-1.510;2023-03-12T06:13:15;25.80;;;6.93;;
21987;SDS011;11158;53.404;-1.510;2023-03-12T06:15:41;23.48;;;7.32;;
21987;SDS011;11158;53.404;-1.510;2023-03-12T06:18:06;25.08;;;6.95;;
21987;SDS011;11158;53.404;-1.510;2023-03-12T06:20:32;23.77;;;6.50;;
21987;SDS011;11158;53.404;-1.510;2023-03-12T06:22:58;26.75;;;6.90;;
21987;SDS011;11158;53.404;-1.510;2023-03-12T06:25:23;22.23;;;6.38;;
21987;SDS011;11158;53.404;-1.510;2023-03-12T06:27:49;26.95;;;7.65;;
21987;SDS011;11158;53.404;-1.510;2023-03-12T06:30:16;33.08;;;6.22;;
21987;SDS011;11158;53.404;-1.510;2023-03-12T06:32:42;29.67;;;6.45;;
21987;SDS011;11158;53.404;-1.510;2023-03-12T06:35:08;33.85;;;5.68;;
21987;SDS011;11158;53.404;-1.510;2023-03-12T06:37:33;25.00;;;5.70;;
21987;SDS011;11158;53.404;-1.510;2023-03-12T06:39:59;26.25;;;4.85;;
21987;SDS011;11158;53.404;-1.510;2023-03-12T06:42:25;22.15;;;4.95;;
21987;SDS011;11158;53.404;-1.510;2023-03-12T06:44:50;24.00;;;5.75;;
21987;SDS011;11158;53.404;-1.510;2023-03-12T06:47:16;24.40;;;4.03;;
21987;SDS011;11158;53.404;-1.510;2023-03-12T06:49:42;19.70;;;4.75;;
21987;SDS011;11158;53.404;-1.510;2023-03-12T06:52:07;24.05;;;4.40;;
21987;SDS011;11158;53.404;-1.510;2023-03-12T06:54:33;26.63;;;5.30;;
21987;SDS011;11158;53.404;-1.510;2023-03-12T06:56:58;23.98;;;5.05;;
21987;SDS011;11158;53.404;-1.510;2023-03-12T06:59:25;27.77;;;5.80;;
21987;SDS011;11158;53.404;-1.510;2023-03-12T07:01:51;25.92;;;5.90;;
21987;SDS011;11158;53.404;-1.510;2023-03-12T07:04:17;23.17;;;4.60;;
21987;SDS011;11158;53.404;-1.510;2023-03-12T07:06:42;27.27;;;5.18;;
21987;SDS011;11158;53.404;-1.510;2023-03-12T07:09:08;19.83;;;4.93;;
21987;SDS011;11158;53.404;-1.510;2023-03-12T07:11:34;24.90;;;5.53;;
21987;SDS011;11158;53.404;-1.510;2023-03-12T07:14:00;25.90;;;4.68;;
21987;SDS011;11158;53.404;-1.510;2023-03-12T07:16:26;29.10;;;5.60;;
21987;SDS011;11158;53.404;-1.510;2023-03-12T07:18:52;28.73;;;5.53;;
21987;SDS011;11158;53.404;-1.510;2023-03-12T07:21:17;20.98;;;4.80;;
21987;SDS011;11158;53.404;-1.510;2023-03-12T07:23:48;24.58;;;4.63;;
21987;SDS011;11158;53.404;-1.510;2023-03-12T07:26:16;25.20;;;5.10;;
21987;SDS011;11158;53.404;-1.510;2023-03-12T07:28:42;18.15;;;4.75;;
21987;SDS011;11158;53.404;-1.510;2023-03-12T07:31:08;21.55;;;4.95;;
21987;SDS011;11158;53.404;-1.510;2023-03-12T07:33:33;22.35;;;4.95;;
21987;SDS011;11158;53.404;-1.510;2023-03-12T07:35:59;22.25;;;5.47;;
21987;SDS011;11158;53.404;-1.510;2023-03-12T07:38:25;28.92;;;4.75;;
21987;SDS011;11158;53.404;-1.510;2023-03-12T07:40:52;18.65;;;4.93;;
21987;SDS011;11158;53.404;-1.510;2023-03-12T07:43:19;32.45;;;5.00;;
21987;SDS011;11158;53.404;-1.510;2023-03-12T07:45:45;25.67;;;5.28;;
21987;SDS011;11158;53.404;-1.510;2023-03-12T07:48:11;25.33;;;4.63;;
21987;SDS011;11158;53.404;-1.510;2023-03-12T07:50:36;20.58;;;4.28;;
21987;SDS011;11158;53.404;-1.510;2023-03-12T07:53:03;21.85;;;4.43;;
21987;SDS011;11158;53.404;-1.510;2023-03-12T07:55:29;26.65;;;4.32;;
21987;SDS011;11158;53.404;-1.510;2023-03-12T07:57:56;22.95;;;5.13;;
21987;SDS011;11158;53.404;-1.510;2023-03-12T08:00:26;29.00;;;5.90;;
21987;SDS011;11158;53.404;-1.510;2023-03-12T08:02:52;18.20;;;4.68;;
21987;SDS011;11158;53.404;-1.510;2023-03-12T08:05:18;29.17;;;4.40;;
21987;SDS011;11158;53.404;-1.510;2023-03-12T08:07:44;22.73;;;4.90;;
21987;SDS011;11158;53.404;-1.510;2023-03-12T08:10:10;25.20;;;4.72;;
21987;SDS011;11158;53.404;-1.510;2023-03-12T08:12:36;29.95;;;5.28;;
21987;SDS011;11158;53.404;-1.510;2023-03-12T08:15:02;25.00;;;4.85;;
21987;SDS011;11158;53.404;-1.510;2023-03-12T08:17:29;19.90;;;3.65;;
21987;SDS011;11158;53.404;-1.510;2023-03-12T08:19:54;27.83;;;5.18;;
21987;SDS011;11158;53.404;-1.510;2023-03-12T08:22:20;25.92;;;4.95;;
21987;SDS011;11158;53.404;-1.510;2023-03-12T08:24:46;18.90;;;4.40;;
21987;SDS011;11158;53.404;-1.510;2023-03-12T08:27:11;23.48;;;4.88;;
21987;SDS011;11158;53.404;-1.510;2023-03-12T08:29:38;25.35;;;4.47;;
21987;SDS011;11158;53.404;-1.510;2023-03-12T08:32:04;22.48;;;4.15;;
21987;SDS011;11158;53.404;-1.510;2023-03-12T08:34:31;25.20;;;5.00;;
21987;SDS011;11158;53.404;-1.510;2023-03-12T08:36:58;29.48;;;4.70;;
21987;SDS011;11158;53.404;-1.510;2023-03-12T08:39:23;26.85;;;5.35;;
21987;SDS011;11158;53.404;-1.510;2023-03-12T08:41:49;22.15;;;4.50;;
21987;SDS011;11158;53.404;-1.510;2023-03-12T08:44:20;20.20;;;4.90;;
21987;SDS011;11158;53.404;-1.510;2023-03-12T08:46:48;24.60;;;4.97;;
21987;SDS011;11158;53.404;-1.510;2023-03-12T08:49:15;17.30;;;4.65;;
21987;SDS011;11158;53.404;-1.510;2023-03-12T08:51:41;18.27;;;3.95;;
21987;SDS011;11158;53.404;-1.510;2023-03-12T08:54:06;22.25;;;4.13;;
21987;SDS011;11158;53.404;-1.510;2023-03-12T08:56:33;21.23;;;4.43;;
21987;SDS011;11158;53.404;-1.510;2023-03-12T08:59:01;21.23;;;4.15;;
21987;SDS011;11158;53.404;-1.510;2023-03-12T09:01:26;23.85;;;4.47;;
21987;SDS011;11158;53.404;-1.510;2023-03-12T09:03:52;22.60;;;4.55;;
21987;SDS011;11158;53.404;-1.510;2023-03-12T09:06:19;21.00;;;5.53;;
21987;SDS011;11158;53.404;-1.510;2023-03-12T09:08:45;24.80;;;5.68;;
21987;SDS011;11158;53.404;-1.510;2023-03-12T09:11:12;26.90;;;4.45;;
21987;SDS011;11158;53.404;-1.510;2023-03-12T09:13:39;30.60;;;5.50;;
21987;SDS011;11158;53.404;-1.510;2023-03-12T09:16:05;24.75;;;4.70;;
21987;SDS011;11158;53.404;-1.510;2023-03-12T09:18:32;22.38;;;6.35;;
21987;SDS011;11158;53.404;-1.510;2023-03-12T09:20:59;24.33;;;5.95;;
21987;SDS011;11158;53.404;-1.510;2023-03-12T09:23:25;29.25;;;5.93;;
21987;SDS011;11158;53.404;-1.510;2023-03-12T09:25:51;21.38;;;5.38;;
21987;SDS011;11158;53.404;-1.510;2023-03-12T09:28:17;25.05;;;6.00;;
21987;SDS011;11158;53.404;-1.510;2023-03-12T09:30:43;24.65;;;6.65;;
21987;SDS011;11158;53.404;-1.510;2023-03-12T09:33:09;24.67;;;4.70;;
21987;SDS011;11158;53.404;-1.510;2023-03-12T09:35:34;23.13;;;5.75;;
21987;SDS011;11158;53.404;-1.510;2023-03-12T09:38:02;30.48;;;5.60;;
21987;SDS011;11158;53.404;-1.510;2023-03-12T09:40:29;21.10;;;4.18;;
21987;SDS011;11158;53.404;-1.510;2023-03-12T09:43:01;26.15;;;5.22;;
21987;SDS011;11158;53.404;-1.510;2023-03-12T09:45:37;20.80;;;4.60;;
21987;SDS011;11158;53.404;-1.510;2023-03-12T09:48:11;23.52;;;5.47;;
21987;SDS011;11158;53.404;-1.510;2023-03-12T09:50:41;23.30;;;5.18;;
21987;SDS011;11158;53.404;-1.510;2023-03-12T09:53:14;13.55;;;4.28;;
21987;SDS011;11158;53.404;-1.510;2023-03-12T09:55:47;27.45;;;5.05;;
21987;SDS011;11158;53.404;-1.510;2023-03-12T10:00:44;23.35;;;4.93;;
21987;SDS011;11158;53.404;-1.510;2023-03-12T10:22:31;24.90;;;4.93;;
21987;SDS011;11158;53.404;-1.510;2023-03-12T10:25:27;27.73;;;6.35;;
21987;SDS011;11158;53.404;-1.510;2023-03-12T10:28:09;20.70;;;4.97;;
21987;SDS011;11158;53.404;-1.510;2023-03-12T10:30:39;19.77;;;4.25;;
21987;SDS011;11158;53.404;-1.510;2023-03-12T10:33:09;22.98;;;4.53;;
21987;SDS011;11158;53.404;-1.510;2023-03-12T10:35:39;20.58;;;4.97;;
21987;SDS011;11158;53.404;-1.510;2023-03-12T10:38:09;17.85;;;4.53;;
21987;SDS011;11158;53.404;-1.510;2023-03-12T10:40:56;20.75;;;4.50;;
21987;SDS011;11158;53.404;-1.510;2023-03-12T10:43:21;21.08;;;4.75;;
21987;SDS011;11158;53.404;-1.510;2023-03-12T10:45:54;16.15;;;4.65;;
21987;SDS011;11158;53.404;-1.510;2023-03-12T10:48:41;21.73;;;4.55;;
21987;SDS011;11158;53.404;-1.510;2023-03-12T10:51:08;15.05;;;4.20;;
21987;SDS011;11158;53.404;-1.510;2023-03-12T10:53:39;28.50;;;5.40;;
21987;SDS011;11158;53.404;-1.510;2023-03-12T10:56:15;16.67;;;4.53;;
21987;SDS011;11158;53.404;-1.510;2023-03-12T10:58:46;20.45;;;4.35;;
21987;SDS011;11158;53.404;-1.510;2023-03-12T11:03:39;21.75;;;4.30;;
21987;SDS011;11158;53.404;-1.510;2023-03-12T11:06:06;18.33;;;4.32;;
21987;SDS011;11158;53.404;-1.510;2023-03-12T11:08:39;22.95;;;4.65;;
21987;SDS011;11158;53.404;-1.510;2023-03-12T11:11:06;21.15;;;4.63;;
21987;SDS011;11158;53.404;-1.510;2023-03-12T11:13:34;22.00;;;5.13;;
21987;SDS011;11158;53.404;-1.510;2023-03-12T11:16:24;20.80;;;4.60;;
21987;SDS011;11158;53.404;-1.510;2023-03-12T11:19:05;19.40;;;4.20;;
21987;SDS011;11158;53.404;-1.510;2023-03-12T11:21:32;18.60;;;4.18;;
21987;SDS011;11158;53.404;-1.510;2023-03-12T11:24:13;24.70;;;3.95;;
21987;SDS011;11158;53.404;-1.510;2023-03-12T11:26:46;18.25;;;4.35;;
21987;SDS011;11158;53.404;-1.510;2023-03-12T11:29:28;18.25;;;4.32;;
21987;SDS011;11158;53.404;-1.510;2023-03-12T11:32:05;20.20;;;5.03;;
21987;SDS011;11158;53.404;-1.510;2023-03-12T11:34:41;15.82;;;4.13;;
21987;SDS011;11158;53.404;-1.510;2023-03-12T11:48:13;22.33;;;5.13;;
21987;SDS011;11158;53.404;-1.510;2023-03-12T12:10:08;16.30;;;3.90;;
21987;SDS011;11158;53.404;-1.510;2023-03-12T12:15:16;19.08;;;4.78;;
21987;SDS011;11158;53.404;-1.510;2023-03-12T12:20:54;17.63;;;3.72;;
21987;SDS011;11158;53.404;-1.510;2023-03-12T12:31:28;14.30;;;3.05;;
21987;SDS011;11158;53.404;-1.510;2023-03-12T12:36:41;12.38;;;3.55;;
21987;SDS011;11158;53.404;-1.510;2023-03-12T12:39:46;13.40;;;3.17;;
21987;SDS011;11158;53.404;-1.510;2023-03-12T12:42:06;17.40;;;3.42;;
21987;SDS011;11158;53.404;-1.510;2023-03-12T12:47:14;17.80;;;3.00;;
21987;SDS011;11158;53.404;-1.510;2023-03-12T12:49:45;12.57;;;2.85;;
21987;SDS011;11158;53.404;-1.510;2023-03-12T12:52:21;16.00;;;3.42;;
21987;SDS011;11158;53.404;-1.510;2023-03-12T12:57:21;10.55;;;2.88;;
21987;SDS011;11158;53.404;-1.510;2023-03-12T13:02:55;17.25;;;3.30;;
21987;SDS011;11158;53.404;-1.510;2023-03-12T13:07:52;20.27;;;4.13;;
21987;SDS011;11158;53.404;-1.510;2023-03-12T13:13:02;14.48;;;3.15;;
21987;SDS011;11158;53.404;-1.510;2023-03-12T13:15:35;12.63;;;3.03;;
21987;SDS011;11158;53.404;-1.510;2023-03-12T13:21:05;11.50;;;3.50;;
21987;SDS011;11158;53.404;-1.510;2023-03-12T13:23:47;14.63;;;3.33;;
21987;SDS011;11158;53.404;-1.510;2023-03-12T13:27:05;12.43;;;3.33;;
21987;SDS011;11158;53.404;-1.510;2023-03-12T13:29:17;20.30;;;3.83;;
21987;SDS011;11158;53.404;-1.510;2023-03-12T13:31:44;17.38;;;4.30;;
21987;SDS011;11158;53.404;-1.510;2023-03-12T13:36:43;19.33;;;3.95;;
21987;SDS011;11158;53.404;-1.510;2023-03-12T13:39:17;12.30;;;3.40;;
21987;SDS011;11158;53.404;-1.510;2023-03-12T13:41:55;14.73;;;3.58;;
21987;SDS011;11158;53.404;-1.510;2023-03-12T13:47:01;17.83;;;4.70;;
21987;SDS011;11158;53.404;-1.510;2023-03-12T13:49:46;18.75;;;4.25;;
21987;SDS011;11158;53.404;-1.510;2023-03-12T13:52:26;20.05;;;4.50;;
21987;SDS011;11158;53.404;-1.510;2023-03-12T13:55:04;18.27;;;4.18;;
21987;SDS011;11158;53.404;-1.510;2023-03-12T13:57:43;20.75;;;5.18;;
21987;SDS011;11158;53.404;-1.510;2023-03-12T14:00:28;20.08;;;3.97;;
21987;SDS011;11158;53.404;-1.510;2023-03-12T14:03:17;22.02;;;4.47;;
21987;SDS011;11158;53.404;-1.510;2023-03-12T14:05:53;21.23;;;4.50;;
21987;SDS011;11158;53.404;-1.510;2023-03-12T14:16:53;16.55;;;3.95;;
21987;SDS011;11158;53.404;-1.510;2023-03-12T14:19:25;18.63;;;4.28;;
21987;SDS011;11158;53.404;-1.510;2023-03-12T14:21:53;21.02;;;4.95;;
21987;SDS011;11158;53.404;-1.510;2023-03-12T14:24:24;17.88;;;4.30;;
21987;SDS011;11158;53.404;-1.510;2023-03-12T14:26:54;20.88;;;4.88;;
21987;SDS011;11158;53.404;-1.510;2023-03-12T14:29:34;21.40;;;4.55;;
21987;SDS011;11158;53.404;-1.510;2023-03-12T14:32:02;25.35;;;5.15;;
21987;SDS011;11158;53.404;-1.510;2023-03-12T14:34:32;21.77;;;4.55;;
21987;SDS011;11158;53.404;-1.510;2023-03-12T14:37:09;18.58;;;4.15;;
21987;SDS011;11158;53.404;-1.510;2023-03-12T14:39:41;21.77;;;4.80;;
21987;SDS011;11158;53.404;-1.510;2023-03-12T14:42:10;24.90;;;5.78;;
21987;SDS011;11158;53.404;-1.510;2023-03-12T14:44:52;21.75;;;6.03;;
21987;SDS011;11158;53.404;-1.510;2023-03-12T14:47:54;18.70;;;4.32;;
21987;SDS011;11158;53.404;-1.510;2023-03-12T14:52:53;26.20;;;8.57;;
21987;SDS011;11158;53.404;-1.510;2023-03-12T14:55:21;26.65;;;6.05;;
21987;SDS011;11158;53.404;-1.510;2023-03-12T14:58:01;25.40;;;6.45;;
21987;SDS011;11158;53.404;-1.510;2023-03-12T15:00:28;20.13;;;4.18;;
21987;SDS011;11158;53.404;-1.510;2023-03-12T15:02:54;19.45;;;4.18;;
21987;SDS011;11158;53.404;-1.510;2023-03-12T15:05:24;19.55;;;5.90;;
21987;SDS011;11158;53.404;-1.510;2023-03-12T15:07:51;27.25;;;4.90;;
21987;SDS011;11158;53.404;-1.510;2023-03-12T15:10:23;23.95;;;5.43;;
21987;SDS011;11158;53.404;-1.510;2023-03-12T15:12:51;20.80;;;4.35;;
21987;SDS011;11158;53.404;-1.510;2023-03-12T15:15:39;21.52;;;5.35;;
21987;SDS011;11158;53.404;-1.510;2023-03-12T15:18:10;20.50;;;5.38;;
21987;SDS011;11158;53.404;-1.510;2023-03-12T15:20:57;17.45;;;4.63;;
21987;SDS011;11158;53.404;-1.510;2023-03-12T15:23:27;19.45;;;4.88;;
21987;SDS011;11158;53.404;-1.510;2023-03-12T15:28:39;25.15;;;4.90;;
21987;SDS011;11158;53.404;-1.510;2023-03-12T15:31:07;17.05;;;4.22;;
21987;SDS011;11158;53.404;-1.510;2023-03-12T15:33:36;25.92;;;5.22;;
21987;SDS011;11158;53.404;-1.510;2023-03-12T15:38:47;21.58;;;5.05;;
21987;SDS011;11158;53.404;-1.510;2023-03-12T15:41:20;19.42;;;5.13;;
21987;SDS011;11158;53.404;-1.510;2023-03-12T15:44:23;21.85;;;5.18;;
21987;SDS011;11158;53.404;-1.510;2023-03-12T15:46:52;12.15;;;3.80;;
21987;SDS011;11158;53.404;-1.510;2023-03-12T15:49:24;18.90;;;4.50;;
21987;SDS011;11158;53.404;-1.510;2023-03-12T15:51:58;24.33;;;5.22;;
21987;SDS011;11158;53.404;-1.510;2023-03-12T15:54:31;17.92;;;5.15;;
21987;SDS011;11158;53.404;-1.510;2023-03-12T16:05:17;25.80;;;4.80;;
21987;SDS011;11158;53.404;-1.510;2023-03-12T16:07:45;14.35;;;4.30;;
21987;SDS011;11158;53.404;-1.510;2023-03-12T16:10:15;15.77;;;3.67;;
21987;SDS011;11158;53.404;-1.510;2023-03-12T16:12:42;20.50;;;4.13;;
21987;SDS011;11158;53.404;-1.510;2023-03-12T16:15:17;24.90;;;4.60;;
21987;SDS011;11158;53.404;-1.510;2023-03-12T16:17:50;19.92;;;4.72;;
21987;SDS011;11158;53.404;-1.510;2023-03-12T16:20:16;19.88;;;4.40;;
21987;SDS011;11158;53.404;-1.510;2023-03-12T16:22:42;22.40;;;3.78;;
21987;SDS011;11158;53.404;-1.510;2023-03-12T16:25:08;19.63;;;4.38;;
21987;SDS011;11158;53.404;-1.510;2023-03-12T16:27:33;18.35;;;4.25;;
21987;SDS011;11158;53.404;-1.510;2023-03-12T16:30:05;19.02;;;4.13;;
21987;SDS011;11158;53.404;-1.510;2023-03-12T16:32:36;14.55;;;4.18;;
21987;SDS011;11158;53.404;-1.510;2023-03-12T16:35:07;20.83;;;4.35;;